Southeast Iowa Regional Airport
KBRL : now visible

Airfield :











YOU CAN JOIN US ON...

 
LOGIN :

Register | Disclaimer

   EN    FR    IT 

 









Legend :    VFR   Marginal VFR   IFR   Intensive IFR   Very Intensive IFR
Visi :
Ceiling :
>= 8 km
>= 3000ft
5 to 8 km
1000 to 3000 ft
1500m to 5 km
500 to 1000 ft
800 to 1500m
200 to 500 ft
< 800m
< 200 ft
Symbols :   Thunderstorms  Fog  Heavy snow  Heavy precipitations  Wind > 20 kt






- Airport Elevation : 698 ft
- IATA code : BRL


KBRL - Southeast Iowa Regional

CURRENT METAR :
  • 060353Z AUTO 00000KT 10SM CLR 24/22 A2999 RMK AO2 SLP147 T02440217

EXPIRED METARs :
  • 060253Z AUTO 00000KT 10SM CLR 25/21 A2998 RMK AO2 SLP144 T02500211 53013
  • 060153Z AUTO 31003KT 10SM SCT050 25/22 A2996 RMK AO2 SLP139 T02500217

TAF KBRL
Valid from the 06 at 00:00 until the 07 at 00:00 UTC


052320Z 0600/0624 25004KT P6SM FEW050
FM060500 00000KT 4SM BR SKC
FM061000 VRB03KT 2SM BR SKC
FM061300 19004KT P6SM SCT050
KZAU FIR / North America



MET'MAP, your aeronautical weather chart ! - Copyright ORBIFLY December 2007 - Disclaimer

ORBIFLY MET'MAP TEAM :

Programming & Development : Alexandra Zaïnal
Concept & original design : Baudouin d'Aumeries
Assistance for programming : Marc-Olivier Méhu
Technical & hardware support : Manuel Goepfert

Contact : metmap@orbifly.com




SOURCES & CREDITS :

   NOAA       Earth
Advisory